Time;durP1;ratioP1;P1;durP2;ratioP2;P2;SDS_P1;SDS_P2;PMS_P1;PMS_P2;Temp;Humidity;BMP_temperature;BMP_pressure;BME280_temperature;BME280_humidity;BME280_pressure;Samples;Min_cycle;Max_cycle;Signal;HPM_P1;HPM_P2
2022/08/05 00:01:15;;;;;;;1999.90;999.90;;;;;;;23.61;100.00;94930.78;5098035;28;20226;-63
2022/08/05 00:03:41;;;;;;;1999.90;999.90;;;;;;;23.62;100.00;94932.31;5098367;28;20195;-67
2022/08/05 00:06:07;;;;;;;1999.90;999.90;;;;;;;23.58;100.00;94931.78;5098080;28;20247;-63
2022/08/05 00:08:32;;;;;;;1999.90;999.90;;;;;;;23.53;100.00;94930.50;5098110;28;20204;-65
2022/08/05 00:11:00;;;;;;;1999.90;999.90;;;;;;;23.44;100.00;94919.56;5115967;28;20179;-62
2022/08/05 00:13:27;;;;;;;1999.90;999.90;;;;;;;23.41;100.00;94914.97;5098094;28;20187;-64
2022/08/05 00:15:53;;;;;;;1999.90;999.90;;;;;;;23.38;100.00;94915.97;5097880;28;20215;-63
2022/08/05 00:18:18;;;;;;;1999.90;999.90;;;;;;;23.33;100.00;94915.91;5098185;28;20202;-67
2022/08/05 00:20:43;;;;;;;1999.90;999.90;;;;;;;23.30;100.00;94912.13;5115891;28;20183;-65
2022/08/05 00:23:09;;;;;;;1999.90;999.90;;;;;;;23.28;100.00;94914.66;5097822;28;20249;-65
2022/08/05 00:25:34;;;;;;;1999.90;999.90;;;;;;;23.17;100.00;94908.97;5098263;28;20221;-65
2022/08/05 00:27:59;;;;;;;1999.90;999.90;;;;;;;23.20;100.00;94901.63;5098198;28;20216;-67
2022/08/05 00:30:25;;;;;;;1999.90;999.90;;;;;;;23.17;100.00;94899.84;5097668;28;20176;-67
2022/08/05 00:32:50;;;;;;;1999.90;999.90;;;;;;;23.17;100.00;94892.25;5097642;28;20199;-64
2022/08/05 00:35:16;;;;;;;1999.90;999.90;;;;;;;23.19;100.00;94888.97;5097488;28;20202;-68
2022/08/05 00:37:41;;;;;;;1999.90;999.90;;;;;;;23.19;100.00;94889.72;5097493;28;20192;-62
2022/08/05 00:40:07;;;;;;;1999.90;999.90;;;;;;;23.16;100.00;94884.38;5096842;28;20195;-67
2022/08/05 00:42:38;;;;;;;1999.90;999.90;;;;;;;23.17;100.00;94877.53;5097369;28;20188;-68
2022/08/05 00:45:06;;;;;;;1999.90;999.90;;;;;;;23.13;100.00;94877.78;5097312;28;20274;-65
2022/08/05 00:47:31;;;;;;;1999.90;999.90;;;;;;;23.13;100.00;94888.94;5097557;28;20187;-66
2022/08/05 00:49:56;;;;;;;1999.90;999.90;;;;;;;23.10;100.00;94883.56;5097198;28;20176;-67
2022/08/05 00:52:22;;;;;;;1999.90;999.90;;;;;;;22.99;100.00;94889.06;5097418;28;20220;-63
2022/08/05 00:54:48;;;;;;;1999.90;999.90;;;;;;;22.96;100.00;94888.06;5096931;28;20235;-62
2022/08/05 00:57:13;;;;;;;1999.90;999.90;;;;;;;22.91;100.00;94890.78;5097848;28;20176;-62
2022/08/05 00:59:39;;;;;;;1999.90;999.90;;;;;;;22.91;100.00;94885.97;5096933;28;20184;-63
2022/08/05 01:02:04;;;;;;;1999.90;999.90;;;;;;;22.93;100.00;94877.91;5097222;28;20187;-61
2022/08/05 01:04:29;;;;;;;1999.90;999.90;;;;;;;22.89;100.00;94865.44;5097003;28;20190;-63
2022/08/05 01:06:55;;;;;;;1999.90;999.90;;;;;;;22.88;100.00;94863.94;5097284;28;20206;-61
2022/08/05 01:09:21;;;;;;;1999.90;999.90;;;;;;;22.89;100.00;94865.44;5096982;28;20206;-64
2022/08/05 01:11:52;;;;;;;1999.90;999.90;;;;;;;22.85;100.00;94859.34;5097015;28;20211;-65
2022/08/05 01:14:44;;;;;;;1999.90;999.90;;;;;;;22.81;100.00;94858.81;5096729;28;20274;-65
2022/08/05 01:17:28;;;;;;;1999.90;999.90;;;;;;;22.80;100.00;94862.88;5096909;28;20184;-73
2022/08/05 01:20:18;;;;;;;1999.90;999.90;;;;;;;22.83;100.00;94856.31;5097293;28;20187;-67
2022/08/05 01:23:10;;;;;;;1999.90;999.90;;;;;;;22.80;100.00;94860.06;5097236;28;20215;-68
2022/08/05 01:26:13;;;;;;;1999.90;999.90;;;;;;;22.74;100.00;94864.84;5096718;28;20196;-66
2022/08/05 01:28:48;;;;;;;1999.90;999.90;;;;;;;22.79;100.00;94883.63;5096738;28;20203;-71
2022/08/05 01:31:38;;;;;;;1999.90;999.90;;;;;;;22.80;100.00;94863.59;5096378;28;20190;-61
2022/08/05 01:34:06;;;;;;;1999.90;999.90;;;;;;;22.82;100.00;94866.66;5113481;28;20198;-62
2022/08/05 01:36:38;;;;;;;1999.90;999.90;;;;;;;22.84;100.00;94874.53;5096466;28;20211;-63
2022/08/05 01:39:03;;;;;;;1999.90;999.90;;;;;;;22.78;100.00;94884.84;5096804;28;20303;-63
2022/08/05 01:41:33;;;;;;;1999.90;999.90;;;;;;;22.75;100.00;94878.25;5096588;28;20195;-64
2022/08/05 01:44:01;;;;;;;1999.90;999.90;;;;;;;22.71;100.00;94883.28;5096461;28;20180;-63
2022/08/05 01:46:29;;;;;;;1999.90;999.90;;;;;;;22.68;100.00;94875.94;5096593;28;20192;-62
2022/08/05 01:48:57;;;;;;;1999.90;999.90;;;;;;;22.75;100.00;94871.91;5096549;28;20183;-62
2022/08/05 01:51:23;;;;;;;1999.90;999.90;;;;;;;22.79;100.00;94878.06;5096502;28;20188;-63
2022/08/05 01:53:51;;;;;;;1999.90;999.90;;;;;;;22.79;100.00;94884.38;5096170;28;20195;-67
2022/08/05 01:56:17;;;;;;;1999.90;999.90;;;;;;;22.76;100.00;94884.59;5096629;28;20211;-64
2022/08/05 01:58:44;;;;;;;1999.90;999.90;;;;;;;22.75;100.00;94883.06;5096132;28;20242;-64
2022/08/05 02:01:13;;;;;;;1999.90;999.90;;;;;;;22.74;100.00;94876.75;5096229;28;20183;-65
2022/08/05 02:03:43;;;;;;;1999.90;999.90;;;;;;;22.80;100.00;94887.94;5096141;28;20245;-65
2022/08/05 02:06:10;;;;;;;1999.90;999.90;;;;;;;22.82;100.00;94879.81;5096246;28;20234;-65
2022/08/05 02:08:36;;;;;;;1999.90;999.90;;;;;;;22.87;100.00;94890.25;5095754;28;20206;-70
2022/08/05 02:11:06;;;;;;;1999.90;999.90;;;;;;;22.90;100.00;94886.50;5095909;28;20270;-70
2022/08/05 02:14:03;;;;;;;1999.90;999.90;;;;;;;22.90;100.00;94886.50;5096257;28;20219;-77
2022/08/05 02:16:33;;;;;;;1999.90;999.90;;;;;;;22.87;100.00;94879.13;5062241;28;20216;-67
2022/08/05 02:19:05;;;;;;;1999.90;999.90;;;;;;;22.86;100.00;94878.34;5095786;28;20211;-72
2022/08/05 02:21:35;;;;;;;1999.90;999.90;;;;;;;22.85;100.00;94878.84;5096041;28;20325;-72
2022/08/05 02:24:07;;;;;;;1999.90;999.90;;;;;;;22.83;100.00;94879.34;5095792;28;20178;-62
2022/08/05 02:26:38;;;;;;;1999.90;999.90;;;;;;;22.80;100.00;94882.34;5096237;28;20219;-68
2022/08/05 02:29:06;;;;;;;1999.90;999.90;;;;;;;22.80;100.00;94880.31;5096060;28;20190;-72
2022/08/05 02:31:35;;;;;;;1999.90;999.90;;;;;;;22.82;100.00;94874.25;5095935;28;20222;-70
2022/08/05 02:34:04;;;;;;;1999.90;999.90;;;;;;;22.81;100.00;94872.72;5095477;28;20191;-71
2022/08/05 02:36:33;;;;;;;1999.90;999.90;;;;;;;22.80;100.00;94876.78;5095543;28;20245;-78
2022/08/05 02:39:01;;;;;;;1999.90;999.90;;;;;;;22.81;100.00;94870.72;5095790;28;20184;-70
2022/08/05 02:41:29;;;;;;;1999.90;999.90;;;;;;;22.81;100.00;94869.94;5095890;28;20188;-72
2022/08/05 02:43:56;;;;;;;1999.90;999.90;;;;;;;22.82;100.00;94865.91;5095626;28;20188;-67
2022/08/05 02:46:22;;;;;;;1999.90;999.90;;;;;;;22.76;100.00;94868.66;5113735;28;20187;-61
2022/08/05 02:48:49;;;;;;;1999.90;999.90;;;;;;;22.78;100.00;94876.50;5095944;28;20184;-63
2022/08/05 02:51:17;;;;;;;1999.90;999.90;;;;;;;22.80;100.00;94874.00;5095775;28;20188;-61
2022/08/05 02:53:43;;;;;;;1999.90;999.90;;;;;;;22.82;100.00;94871.47;5095637;28;20274;-58
2022/08/05 02:56:10;;;;;;;1999.90;999.90;;;;;;;22.79;100.00;94866.91;5095579;28;20214;-58
2022/08/05 02:58:40;;;;;;;1999.90;999.90;;;;;;;22.72;100.00;94859.00;5095265;28;20188;-58
2022/08/05 03:01:08;;;;;;;1999.90;999.90;;;;;;;22.69;100.00;94866.31;5112589;28;20183;-65
2022/08/05 03:03:38;;;;;;;1999.90;999.90;;;;;;;22.60;100.00;94854.59;5097921;28;20195;-72
2022/08/05 03:06:04;;;;;;;1999.90;999.90;;;;;;;22.58;100.00;94851.56;5099206;28;20297;-71
2022/08/05 03:08:29;;;;;;;1999.90;999.90;;;;;;;22.57;100.00;94855.59;5098854;28;20184;-72
2022/08/05 03:10:55;;;;;;;1999.90;999.90;;;;;;;22.52;100.00;94843.91;5099042;28;20184;-77
2022/08/05 03:13:20;;;;;;;1999.90;999.90;;;;;;;22.48;100.00;94847.41;5098601;28;20184;-76
2022/08/05 03:15:47;;;;;;;1999.90;999.90;;;;;;;22.41;100.00;94849.34;5099298;28;20212;-72
2022/08/05 03:18:13;;;;;;;1999.90;999.90;;;;;;;22.36;100.00;94836.16;5099215;28;20188;-77
2022/08/05 03:20:39;;;;;;;1999.90;999.90;;;;;;;22.36;100.00;94833.38;5098972;28;20211;-64
2022/08/05 03:23:06;;;;;;;1999.90;999.90;;;;;;;22.32;100.00;94818.94;5098554;28;20194;-63
2022/08/05 03:25:33;;;;;;;1999.90;999.90;;;;;;;22.30;100.00;94821.41;5115784;28;20227;-63
2022/08/05 03:28:00;;;;;;;1999.90;999.90;;;;;;;22.27;100.00;94821.66;5098706;28;20213;-65
2022/08/05 03:30:27;;;;;;;1999.90;999.90;;;;;;;22.22;100.00;94820.34;5099054;28;20187;-65
2022/08/05 03:32:53;;;;;;;1999.90;999.90;;;;;;;22.18;100.00;94807.94;5098482;28;20286;-62
2022/08/05 03:35:20;;;;;;;1999.90;999.90;;;;;;;22.10;100.00;94809.59;5099163;28;20199;-64
2022/08/05 03:37:45;;;;;;;1999.90;999.90;;;;;;;22.09;100.00;94808.88;5098606;28;20236;-66
2022/08/05 03:40:11;;;;;;;1999.90;999.90;;;;;;;22.03;100.00;94802.47;5098376;28;20192;-73
2022/08/05 03:42:39;;;;;;;1999.90;999.90;;;;;;;22.01;100.00;94805.00;5098584;28;20179;-73
2022/08/05 03:45:05;;;;;;;1999.90;999.90;;;;;;;22.03;100.00;94807.25;5098532;28;20258;-70
2022/08/05 03:47:31;;;;;;;1999.90;999.90;;;;;;;22.01;100.00;94810.56;5098370;28;20180;-73
2022/08/05 03:49:56;;;;;;;1999.90;999.90;;;;;;;22.03;100.00;94808.03;5098492;28;20191;-70
2022/08/05 03:52:26;;;;;;;1999.90;999.90;;;;;;;22.04;100.00;94801.22;5098725;28;20184;-69
2022/08/05 03:55:00;;;;;;;1999.90;999.90;;;;;;;22.01;100.00;94784.75;5097872;28;20213;-79
2022/08/05 03:57:31;;;;;;;1999.90;999.90;;;;;;;21.96;100.00;94777.88;5099157;28;20233;-70
2022/08/05 04:00:00;;;;;;;1999.90;999.90;;;;;;;21.91;100.00;94769.50;5098191;28;20249;-64
2022/08/05 04:02:29;;;;;;;1999.90;999.90;;;;;;;21.88;100.00;94768.47;5098158;28;20184;-65
2022/08/05 04:04:57;;;;;;;1999.90;999.90;;;;;;;21.94;100.00;94763.72;5098095;28;20191;-65
2022/08/05 04:07:23;;;;;;;1999.90;999.90;;;;;;;22.06;100.00;94776.47;5098210;28;20180;-66
2022/08/05 04:09:48;;;;;;;1999.90;999.90;;;;;;;22.19;100.00;94793.50;5098101;28;20195;-65
2022/08/05 04:12:14;;;;;;;1999.90;999.90;;;;;;;22.33;100.00;94789.84;5098223;28;20247;-67
2022/08/05 04:14:41;;;;;;;1999.90;999.90;;;;;;;22.48;100.00;94802.88;5114661;28;20187;-67
2022/08/05 04:17:08;;;;;;;1999.90;999.90;;;;;;;22.60;100.00;94804.47;5098179;28;20208;-65
2022/08/05 04:19:44;;;;;;;1999.90;999.90;;;;;;;22.66;100.00;94824.78;5098141;28;20349;-65
2022/08/05 04:22:10;;;;;;;1999.90;999.90;;;;;;;22.76;100.00;94831.69;5098664;28;20228;-66
2022/08/05 04:24:45;;;;;;;1999.90;999.90;;;;;;;22.85;100.00;94837.84;5098188;28;20278;-64
2022/08/05 04:27:13;;;;;;;1999.90;999.90;;;;;;;22.83;100.00;94856.31;5098335;28;20190;-67
2022/08/05 04:29:40;;;;;;;1999.90;999.90;;;;;;;22.77;100.00;94858.28;5097485;28;20176;-64
2022/08/05 04:32:06;;;;;;;1999.90;999.90;;;;;;;22.96;100.00;94870.56;5097572;28;20290;-70
2022/08/05 04:34:32;;;;;;;1999.90;999.90;;;;;;;23.26;100.00;94910.81;5097486;28;20180;-71
2022/08/05 04:36:57;;;;;;;1999.90;999.90;;;;;;;23.33;100.00;94952.16;5097539;28;20204;-66
2022/08/05 04:39:23;;;;;;;1999.90;999.90;;;;;;;23.36;100.00;94949.16;5097779;28;20188;-67
2022/08/05 04:41:48;;;;;;;1999.90;999.90;;;;;;;23.38;100.00;94948.66;5097664;28;20191;-66
2022/08/05 04:44:15;;;;;;;1999.90;999.90;;;;;;;23.70;100.00;94966.84;5097566;28;20184;-66
2022/08/05 04:46:40;;;;;;;1999.90;999.90;;;;;;;24.08;100.00;94980.25;5097624;28;20263;-68
2022/08/05 04:49:06;;;;;;;1999.90;999.90;;;;;;;24.60;100.00;95001.75;5097330;28;20294;-63
2022/08/05 04:51:31;;;;;;;1999.90;999.90;;;;;;;25.15;100.00;95003.91;5097215;28;20179;-73
2022/08/05 04:53:58;;;;;;;1999.90;999.90;;;;;;;25.71;100.00;95024.25;5097329;28;20188;-62
2022/08/05 04:56:23;;;;;;;1999.90;999.90;;;;;;;26.10;100.00;95045.31;5097176;28;20211;-59
2022/08/05 04:58:49;;;;;;;1999.90;999.90;;;;;;;26.48;100.00;95054.88;5097343;28;20195;-57
2022/08/05 05:01:14;;;;;;;1999.90;999.90;;;;;;;26.98;100.00;95064.59;5097114;28;20192;-57
2022/08/05 05:03:40;;;;;;;1999.90;999.90;;;;;;;27.44;100.00;95072.25;5097208;28;20184;-60
2022/08/05 05:06:09;;;;;;;1999.90;999.90;;;;;;;28.15;100.00;95074.44;5097290;28;20199;-67
2022/08/05 05:08:35;;;;;;;1999.90;999.90;;;;;;;28.81;100.00;95081.41;5097185;28;20299;-57
2022/08/05 05:11:01;;;;;;;1999.90;999.90;;;;;;;29.64;92.99;95085.94;5097118;28;20194;-70
2022/08/05 05:13:26;;;;;;;1999.90;999.90;;;;;;;30.41;86.24;95099.47;5096766;28;20184;-58
2022/08/05 05:15:51;;;;;;;1999.90;999.90;;;;;;;30.98;80.59;95103.50;5097424;28;20215;-60
2022/08/05 05:18:17;;;;;;;1999.90;999.90;;;;;;;31.62;77.09;95110.34;5096566;28;20175;-61
2022/08/05 05:20:44;;;;;;;1999.90;999.90;;;;;;;32.31;73.37;95101.25;5097355;28;20188;-55
2022/08/05 05:23:09;;;;;;;1999.90;999.90;;;;;;;32.72;70.99;95107.59;5096783;28;20180;-65
2022/08/05 05:25:35;;;;;;;1999.90;999.90;;;;;;;33.06;67.22;95118.75;5096343;28;20190;-66
2022/08/05 05:28:00;;;;;;;1999.90;999.90;;;;;;;33.59;65.10;95109.19;5097189;28;20184;-67
2022/08/05 05:30:25;;;;;;;1999.90;999.90;;;;;;;33.89;63.62;95119.13;5096738;28;20231;-66
2022/08/05 05:32:51;;;;;;;1999.90;999.90;;;;;;;34.21;62.15;95110.84;5096581;28;20171;-66
2022/08/05 05:35:17;;;;;;;1999.90;999.90;;;;;;;34.25;60.48;95117.66;5096847;28;20214;-66
2022/08/05 05:37:50;;;;;;;1999.90;999.90;;;;;;;34.74;58.52;95111.63;5096422;28;20201;-67
2022/08/05 05:40:21;;;;;;;1999.90;999.90;;;;;;;35.27;56.90;95117.94;5096789;28;20187;-62
2022/08/05 05:42:46;;;;;;;1999.90;999.90;;;;;;;35.50;54.80;95121.50;5114450;28;20180;-64
2022/08/05 05:45:12;;;;;;;1999.90;999.90;;;;;;;35.80;53.71;95115.69;5096824;28;20179;-63
2022/08/05 05:47:39;;;;;;;1999.90;999.90;;;;;;;36.47;50.42;95123.03;5115018;28;20183;-60
2022/08/05 05:50:05;;;;;;;1999.90;999.90;;;;;;;36.62;50.15;95127.88;5096626;28;20184;-68
2022/08/05 05:52:30;;;;;;;1999.90;999.90;;;;;;;36.59;49.44;95118.38;5095833;28;20211;-69
2022/08/05 05:55:00;;;;;;;1999.90;999.90;;;;;;;37.14;46.04;95124.50;5096692;28;20183;-69
2022/08/05 05:57:26;;;;;;;1999.90;999.90;;;;;;;37.72;44.47;95120.09;5096260;28;20176;-69
2022/08/05 05:59:51;;;;;;;1999.90;999.90;;;;;;;37.98;44.47;95120.09;5096341;28;20175;-71
2022/08/05 06:02:17;;;;;;;1999.90;999.90;;;;;;;38.56;42.60;95124.03;5096112;28;20184;-64
2022/08/05 06:04:42;;;;;;;1999.90;999.90;;;;;;;38.81;41.88;95122.44;5096317;28;20192;-61
2022/08/05 06:07:07;;;;;;;1999.90;999.90;;;;;;;38.67;41.20;95124.22;5096538;28;20185;-61
2022/08/05 06:09:33;;;;;;;1999.90;999.90;;;;;;;36.87;44.78;95117.97;5096146;28;20200;-65
2022/08/05 06:11:58;;;;;;;1999.90;999.90;;;;;;;36.83;45.54;95114.78;5095899;28;20176;-59
2022/08/05 06:14:23;;;;;;;1999.90;999.90;;;;;;;36.16;47.12;95116.78;5095823;28;20186;-58
2022/08/05 06:16:49;;;;;;;1999.90;999.90;;;;;;;34.79;50.50;95119.19;5096006;28;20195;-57
2022/08/05 06:19:14;;;;;;;1999.90;999.90;;;;;;;33.59;57.26;95126.22;5096041;28;20190;-65
2022/08/05 06:21:39;;;;;;;1999.90;999.90;;;;;;;33.05;61.43;95117.22;5096158;28;20207;-61
2022/08/05 06:24:06;;;;;;;1999.90;999.90;;;;;;;33.22;61.09;95118.25;5095989;28;20188;-61
2022/08/05 06:26:31;;;;;;;1999.90;999.90;;;;;;;34.70;55.67;95116.94;5095885;28;20190;-60
2022/08/05 06:28:57;;;;;;;1999.90;999.90;;;;;;;36.01;49.41;95116.88;5096119;28;20184;-61
2022/08/05 06:31:22;;;;;;;1999.90;999.90;;;;;;;36.54;48.20;95122.22;5096329;28;20199;-63
2022/08/05 06:33:47;;;;;;;1999.90;999.90;;;;;;;37.27;44.45;95112.03;5095842;28;20202;-66
2022/08/05 06:36:13;;;;;;;1999.90;999.90;;;;;;;38.11;43.20;95116.91;5095588;28;20207;-62
2022/08/05 06:38:38;;;;;;;1999.90;999.90;;;;;;;37.88;41.63;95133.56;5098231;28;20233;-59
2022/08/05 06:41:04;;;;;;;1999.90;999.90;;;;;;;38.14;41.06;95118.56;5099306;28;20204;-63
2022/08/05 06:43:30;;;;;;;1999.90;999.90;;;;;;;38.16;41.19;95121.56;5099050;28;20230;-62
2022/08/05 06:45:55;;;;;;;1999.90;999.90;;;;;;;38.75;39.71;95118.38;5099571;28;20179;-63
2022/08/05 06:48:23;;;;;;;1999.90;999.90;;;;;;;38.31;39.48;95126.31;5099808;28;20226;-62
2022/08/05 06:50:48;;;;;;;1999.90;999.90;;;;;;;39.04;39.21;95139.97;5099242;28;20232;-66
2022/08/05 06:53:14;;;;;;;1999.90;999.90;;;;;;;39.63;37.72;95130.09;5099651;28;20184;-63
2022/08/05 06:55:40;;;;;;;1999.90;999.90;;;;;;;39.70;36.93;95129.19;5099542;28;20242;-64
2022/08/05 06:58:06;;;;;;;1999.90;999.90;;;;;;;39.22;38.25;95124.19;5099236;28;20179;-64
2022/08/05 07:00:32;;;;;;;1999.90;999.90;;;;;;;37.38;41.51;95131.50;5098877;28;20258;-65
2022/08/05 07:02:58;;;;;;;1999.90;999.90;;;;;;;36.53;44.21;95134.94;5098754;28;20184;-59
2022/08/05 07:05:25;;;;;;;1999.90;999.90;;;;;;;35.06;50.80;95143.03;5098724;28;20190;-59
2022/08/05 07:07:51;;;;;;;1999.90;999.90;;;;;;;34.55;53.23;95134.72;5098856;28;20191;-60
2022/08/05 07:10:16;;;;;;;1999.90;999.90;;;;;;;34.39;54.52;95138.13;5098759;28;20196;-58
2022/08/05 07:18:10;;;;;;;1999.90;999.90;;;;;;;33.29;61.34;95147.97;5117370;28;20195;-59
2022/08/05 07:20:35;;;;;;;1999.90;999.90;;;;;;;33.09;63.33;95149.56;5099069;28;20180;-66
2022/08/05 07:23:00;;;;;;;1999.90;999.90;;;;;;;32.61;64.29;95156.00;5098899;28;20188;-64
2022/08/05 07:25:39;;;;;;;1999.90;999.90;;;;;;;32.27;66.32;95163.78;5116544;28;20175;-67
2022/08/05 07:28:05;;;;;;;1999.90;999.90;;;;;;;31.99;68.80;95172.19;5098348;28;20186;-64
2022/08/05 07:30:32;;;;;;;1999.90;999.90;;;;;;;31.76;69.50;95168.31;5099014;28;20187;-64
2022/08/05 07:32:57;;;;;;;1999.90;999.90;;;;;;;31.40;71.73;95175.81;5116303;28;20263;-62
2022/08/05 07:35:23;;;;;;;1999.90;999.90;;;;;;;31.14;74.27;95184.28;5098272;28;20294;-67
2022/08/05 07:37:48;;;;;;;1999.90;999.90;;;;;;;31.32;72.95;95189.06;5098427;28;20172;-63
2022/08/05 07:40:14;;;;;;;1999.90;999.90;;;;;;;31.21;73.86;95188.50;5116474;28;20240;-61
2022/08/05 07:42:39;;;;;;;1999.90;999.90;;;;;;;31.31;74.79;95193.19;5098180;28;20206;-59
2022/08/05 07:45:05;;;;;;;1999.90;999.90;;;;;;;31.19;76.44;95191.88;5098308;28;20248;-60
2022/08/05 07:47:30;;;;;;;1999.90;999.90;;;;;;;31.84;73.52;95188.97;5098209;28;20208;-59
2022/08/05 07:49:55;;;;;;;1999.90;999.90;;;;;;;32.09;72.22;95193.03;5097989;28;20187;-60
2022/08/05 07:52:21;;;;;;;1999.90;999.90;;;;;;;32.59;70.15;95189.00;5098455;28;20191;-60
2022/08/05 07:54:46;;;;;;;1999.90;999.90;;;;;;;33.01;68.63;95202.53;5098609;28;20184;-60
2022/08/05 07:57:12;;;;;;;1999.90;999.90;;;;;;;34.48;61.23;95205.69;5098149;28;20199;-62
2022/08/05 07:59:37;;;;;;;1999.90;999.90;;;;;;;35.71;55.77;95212.94;5098605;28;20188;-63
2022/08/05 08:02:03;;;;;;;1999.90;999.90;;;;;;;37.20;49.00;95216.25;5097863;28;20256;-64
2022/08/05 08:04:28;;;;;;;1999.90;999.90;;;;;;;38.42;44.33;95229.31;5098177;28;20190;-62
2022/08/05 08:06:54;;;;;;;1999.90;999.90;;;;;;;39.20;41.23;95229.88;5098131;28;20186;-62
2022/08/05 08:09:19;;;;;;;1999.90;999.90;;;;;;;38.84;40.90;95235.56;5097713;28;20195;-61
2022/08/05 08:11:45;;;;;;;1999.90;999.90;;;;;;;40.01;38.75;95230.31;5097962;28;20179;-63
2022/08/05 08:14:10;;;;;;;1999.90;999.90;;;;;;;40.78;35.26;95246.03;5097682;28;20184;-72
2022/08/05 08:16:36;;;;;;;1999.90;999.90;;;;;;;40.07;35.71;95236.47;5098034;28;20207;-59
2022/08/05 08:19:01;;;;;;;1999.90;999.90;;;;;;;40.25;35.90;95240.69;5097573;28;20187;-62
2022/08/05 08:21:26;;;;;;;1999.90;999.90;;;;;;;39.38;37.03;95241.19;5098258;28;20206;-61
2022/08/05 08:23:52;;;;;;;1999.90;999.90;;;;;;;40.58;34.92;95244.53;5097640;28;20179;-54
2022/08/05 08:26:17;;;;;;;1999.90;999.90;;;;;;;40.88;34.71;95241.00;5097799;28;20179;-60
2022/08/05 08:28:42;;;;;;;1999.90;999.90;;;;;;;40.99;33.73;95254.69;5097572;28;20226;-58
2022/08/05 08:31:08;;;;;;;1999.90;999.90;;;;;;;41.17;32.59;95261.75;5097480;28;20278;-65
2022/08/05 08:33:34;;;;;;;1999.90;999.90;;;;;;;40.17;33.91;95263.00;5097875;28;20190;-63
2022/08/05 08:35:59;;;;;;;1999.90;999.90;;;;;;;40.24;34.30;95273.56;5097524;28;20214;-58
2022/08/05 08:38:25;;;;;;;1999.90;999.90;;;;;;;40.84;32.44;95266.53;5097240;28;20226;-64
2022/08/05 08:40:50;;;;;;;1999.90;999.90;;;;;;;40.42;33.05;95272.03;5098196;28;20183;-60
2022/08/05 08:43:17;;;;;;;1999.90;999.90;;;;;;;40.39;33.41;95279.75;5097397;28;20180;-60
2022/08/05 08:45:44;;;;;;;1999.90;999.90;;;;;;;40.22;33.64;95277.03;5097637;28;20180;-60
2022/08/05 08:48:14;;;;;;;1999.90;999.90;;;;;;;39.28;34.94;95283.31;5115237;28;20191;-64
2022/08/05 08:50:42;;;;;;;1999.90;999.90;;;;;;;39.83;34.42;95286.19;5097449;28;20188;-64
2022/08/05 08:53:10;;;;;;;1999.90;999.90;;;;;;;39.83;34.42;95297.66;5114426;28;20245;-60
2022/08/05 08:55:37;;;;;;;1999.90;999.90;;;;;;;39.72;34.78;95298.22;5097521;28;20239;-61
2022/08/05 08:58:03;;;;;;;1999.90;999.90;;;;;;;40.32;33.94;95302.81;5097115;28;20176;-58
2022/08/05 09:00:29;;;;;;;1999.90;999.90;;;;;;;40.20;33.89;95304.75;5096899;28;20229;-66
2022/08/05 09:02:56;;;;;;;1999.90;999.90;;;;;;;40.98;32.90;95302.72;5097122;28;20186;-59
2022/08/05 09:05:22;;;;;;;1999.90;999.90;;;;;;;40.26;33.85;95305.22;5097241;28;20270;-58
2022/08/05 09:07:49;;;;;;;1999.90;999.90;;;;;;;40.54;33.35;95307.31;5096844;28;20219;-62
2022/08/05 09:10:14;;;;;;;1999.90;999.90;;;;;;;40.01;33.42;95313.34;5096740;28;20200;-62
2022/08/05 09:12:40;;;;;;;1999.90;999.90;;;;;;;40.45;33.67;95310.94;5097217;28;20205;-69
2022/08/05 09:15:06;;;;;;;1999.90;999.90;;;;;;;40.93;32.20;95314.50;5097123;28;20183;-68
2022/08/05 09:17:32;;;;;;;1999.90;999.90;;;;;;;40.48;33.08;95326.91;5097038;28;20172;-69
2022/08/05 09:19:58;;;;;;;1999.90;999.90;;;;;;;40.91;32.90;95317.22;5096936;28;20282;-80
2022/08/05 09:22:24;;;;;;;1999.90;999.90;;;;;;;40.86;32.57;95321.88;5096699;28;20202;-63
2022/08/05 09:24:58;;;;;;;1999.90;999.90;;;;;;;40.61;32.67;95323.59;5096858;28;20215;-68
2022/08/05 09:27:33;;;;;;;1999.90;999.90;;;;;;;41.56;31.77;95335.59;5096939;28;20180;-64
2022/08/05 09:29:59;;;;;;;1999.90;999.90;;;;;;;41.13;32.67;95333.94;5096891;28;20194;-62
2022/08/05 09:32:38;;;;;;;1999.90;999.90;;;;;;;40.77;32.65;95337.00;5097163;28;20180;-65
2022/08/05 09:35:11;;;;;;;1999.90;999.90;;;;;;;40.32;33.53;95332.22;5097057;28;20179;-66
2022/08/05 09:37:39;;;;;;;1999.90;999.90;;;;;;;40.08;33.62;95324.63;5096924;28;20188;-67
2022/08/05 09:40:05;;;;;;;1999.90;999.90;;;;;;;40.74;33.05;95326.00;5096919;28;20187;-62
2022/08/05 09:42:39;;;;;;;1999.90;999.90;;;;;;;40.97;32.96;95335.59;5096413;28;20328;-60
2022/08/05 09:45:07;;;;;;;1999.90;999.90;;;;;;;41.88;31.19;95337.09;5096983;28;20226;-74
2022/08/05 09:47:33;;;;;;;1999.90;999.90;;;;;;;42.43;29.91;95333.69;5096491;28;20211;-63
2022/08/05 09:49:58;;;;;;;1999.90;999.90;;;;;;;41.87;30.47;95334.84;5114587;28;20186;-61
2022/08/05 09:52:26;;;;;;;1999.90;999.90;;;;;;;42.10;30.57;95335.72;5096776;28;20206;-62
2022/08/05 09:55:00;;;;;;;1999.90;999.90;;;;;;;41.51;30.99;95335.91;5096473;28;20187;-59
2022/08/05 09:57:29;;;;;;;1999.90;999.90;;;;;;;41.52;31.71;95328.81;5096270;28;20282;-59
2022/08/05 10:00:10;;;;;;;1999.90;999.90;;;;;;;41.03;30.92;95329.59;5096920;28;20175;-61
2022/08/05 10:02:44;;;;;;;1999.90;999.90;;;;;;;40.67;31.81;95324.06;5096045;28;20210;-61
2022/08/05 10:05:18;;;;;;;1999.90;999.90;;;;;;;39.70;33.71;95336.00;5096229;28;20187;-66
2022/08/05 10:07:58;;;;;;;1999.90;999.90;;;;;;;39.48;35.03;95327.81;5096275;28;20184;-73
2022/08/05 10:10:44;;;;;;;1999.90;999.90;;;;;;;39.54;34.84;95328.28;5096115;28;20203;-72
2022/08/05 10:13:10;;;;;;;1999.90;999.90;;;;;;;39.26;34.70;95338.97;5095423;28;20260;-73
2022/08/05 10:15:39;;;;;;;1999.90;999.90;;;;;;;39.42;35.03;95327.31;5095890;28;20219;-72
2022/08/05 10:18:26;;;;;;;1999.90;999.90;;;;;;;38.45;36.51;95330.22;5095967;28;20187;-67
2022/08/05 10:21:03;;;;;;;1999.90;999.90;;;;;;;38.32;37.39;95345.59;5096384;28;20184;-66
2022/08/05 10:23:35;;;;;;;1999.90;999.90;;;;;;;39.15;36.07;95333.81;5096538;28;20262;-65
2022/08/05 10:26:06;;;;;;;1999.90;999.90;;;;;;;39.75;34.99;95339.94;5096289;28;20183;-66
2022/08/05 10:28:32;;;;;;;1999.90;999.90;;;;;;;39.16;35.49;95349.66;5096722;28;20184;-64
2022/08/05 10:30:58;;;;;;;1999.90;999.90;;;;;;;38.83;36.02;95341.91;5095912;28;20184;-64
2022/08/05 10:33:26;;;;;;;1999.90;999.90;;;;;;;39.68;34.76;95343.69;5096228;28;20249;-62
2022/08/05 10:35:53;;;;;;;1999.90;999.90;;;;;;;39.90;34.59;95343.28;5095557;28;20210;-67
2022/08/05 10:38:20;;;;;;;1999.90;999.90;;;;;;;40.17;33.33;95340.31;5096026;28;20186;-64
2022/08/05 10:40:55;;;;;;;1999.90;999.90;;;;;;;39.76;33.73;95344.31;5095871;28;20199;-66
2022/08/05 10:43:47;;;;;;;1999.90;999.90;;;;;;;40.32;32.74;95349.41;5095916;28;20266;-62
2022/08/05 10:46:16;;;;;;;1999.90;999.90;;;;;;;40.65;31.65;95346.84;5095766;28;20278;-63
2022/08/05 10:48:46;;;;;;;1999.90;999.90;;;;;;;40.72;31.02;95334.47;5095552;28;20199;-59
2022/08/05 10:51:16;;;;;;;1999.90;999.90;;;;;;;40.62;32.14;95336.56;5095818;28;20245;-59
2022/08/05 10:53:54;;;;;;;1999.90;999.90;;;;;;;40.84;31.64;95338.19;5095561;28;20208;-60
2022/08/05 10:56:25;;;;;;;1999.90;999.90;;;;;;;41.01;30.71;95335.16;5095243;28;20203;-61
2022/08/05 10:58:57;;;;;;;1999.90;999.90;;;;;;;41.31;30.50;95337.31;5095348;28;20184;-65